createdAt,value
2018-07-30T00:04:05.267Z,21.70
2018-07-30T00:09:10.400Z,21.60
2018-07-30T00:14:15.383Z,21.60
2018-07-30T00:19:19.415Z,21.50
2018-07-30T00:24:23.007Z,21.40
2018-07-30T00:29:26.913Z,21.40
2018-07-30T00:34:30.520Z,21.30
2018-07-30T00:39:34.052Z,21.30
2018-07-30T00:44:38.179Z,21.20
2018-07-30T00:49:41.992Z,21.10
2018-07-30T01:00:13.205Z,20.80
2018-07-30T01:05:16.793Z,20.80
2018-07-30T01:10:20.282Z,20.60
2018-07-30T01:15:23.950Z,20.50
2018-07-30T01:20:27.561Z,20.50
2018-07-30T01:25:31.031Z,20.50
2018-07-30T01:30:34.538Z,20.60
2018-07-30T01:35:38.605Z,20.50
2018-07-30T01:40:42.232Z,20.40
2018-07-30T01:51:14.879Z,20.50
2018-07-30T01:56:18.368Z,20.50
2018-07-30T02:01:27.458Z,20.40
2018-07-30T02:06:30.916Z,20.20
2018-07-30T02:11:34.550Z,20.10
2018-07-30T02:16:38.212Z,20.00
2018-07-30T02:21:42.771Z,19.90
2018-07-30T02:26:46.268Z,19.80
2018-07-30T02:31:50.469Z,19.70
2018-07-30T02:36:54.374Z,19.70
2018-07-30T02:42:00.157Z,19.70
2018-07-30T02:47:06.885Z,19.70
2018-07-30T02:52:13.961Z,19.70
2018-07-30T02:57:20.765Z,19.60
2018-07-30T03:02:24.295Z,19.50
2018-07-30T03:07:31.520Z,19.50
2018-07-30T04:29:08.238Z,19.00
2018-07-30T04:34:12.382Z,19.00
2018-07-30T04:39:16.007Z,19.00
2018-07-30T04:44:20.021Z,19.20
2018-07-30T04:49:23.926Z,19.30
2018-07-30T04:54:27.296Z,19.40
2018-07-30T04:59:30.793Z,19.50
2018-07-30T05:04:35.520Z,19.60
2018-07-30T05:09:38.900Z,19.80
2018-07-30T05:14:42.411Z,19.90
2018-07-30T05:24:49.161Z,20.30
2018-07-30T05:29:52.619Z,20.50
2018-07-30T05:34:56.028Z,20.60
2018-07-30T05:39:59.504Z,20.80
2018-07-30T05:45:03.037Z,21.00
2018-07-30T05:50:10.279Z,21.10
2018-07-30T05:55:16.718Z,21.40
2018-07-30T06:00:20.301Z,21.50
2018-07-30T06:05:23.874Z,21.50
2018-07-30T06:10:27.360Z,21.70
2018-07-30T06:15:30.991Z,22.10
2018-07-30T06:20:34.478Z,22.30
2018-07-30T06:25:40.187Z,22.60
2018-07-30T06:30:43.813Z,22.90
2018-07-30T06:35:47.296Z,23.20
2018-07-30T06:40:51.326Z,23.50
2018-07-30T06:45:54.946Z,23.70
2018-07-30T06:51:11.213Z,23.80
2018-07-30T06:56:14.612Z,24.30
2018-07-30T07:01:18.053Z,24.50
2018-07-30T07:06:21.539Z,25.00
2018-07-30T07:11:25.090Z,25.30
2018-07-30T07:16:28.577Z,25.70
2018-07-30T07:21:32.260Z,26.10
2018-07-30T07:26:35.895Z,26.60
2018-07-30T07:31:39.412Z,27.00
2018-07-30T07:41:57.136Z,27.00
2018-07-30T07:47:07.523Z,27.50
2018-07-30T07:52:11.081Z,28.00
2018-07-30T07:57:14.768Z,28.50
2018-07-30T08:02:18.213Z,28.80
2018-07-30T08:07:23.167Z,29.40
2018-07-30T08:12:26.866Z,29.70
2018-07-30T08:17:30.450Z,30.20
2018-07-30T08:22:33.929Z,30.80
2018-07-30T08:32:42.882Z,31.50
2018-07-30T08:37:48.384Z,32.00
2018-07-30T08:43:01.710Z,32.30
2018-07-30T08:48:05.592Z,32.70
2018-07-30T08:58:42.965Z,33.40
2018-07-30T09:03:46.700Z,33.60
2018-07-30T09:08:53.315Z,33.90
2018-07-30T09:13:56.925Z,33.90
2018-07-30T09:19:00.263Z,33.90
2018-07-30T09:24:03.789Z,33.50
2018-07-30T09:29:07.313Z,33.80
2018-07-30T09:34:10.949Z,34.30
2018-07-30T09:39:14.539Z,34.90
2018-07-30T09:44:18.455Z,35.20
2018-07-30T09:49:21.973Z,35.30
2018-07-30T09:54:25.443Z,35.00
2018-07-30T09:59:29.031Z,35.60
2018-07-30T10:04:33.523Z,35.90
2018-07-30T10:09:37.994Z,36.10
2018-07-30T10:14:43.693Z,36.60
2018-07-30T10:19:49.057Z,36.40
2018-07-30T10:24:53.489Z,36.50
2018-07-30T10:29:57.286Z,37.10
2018-07-30T10:35:02.974Z,37.20
2018-07-30T10:40:06.490Z,37.60
2018-07-30T10:45:10.181Z,38.00
2018-07-30T10:50:14.425Z,37.80
2018-07-30T10:55:17.862Z,37.50
2018-07-30T11:11:37.272Z,37.70
2018-07-30T11:16:41.940Z,37.60
2018-07-30T11:21:45.426Z,37.70
2018-07-30T11:32:09.847Z,37.60
2018-07-30T11:37:13.310Z,38.30
2018-07-30T11:53:27.445Z,39.30
2018-07-30T11:58:40.500Z,39.70
2018-07-30T12:03:47.391Z,40.10
2018-07-30T12:08:56.791Z,40.90
2018-07-30T12:19:03.980Z,40.40
2018-07-30T12:24:14.200Z,40.10
2018-07-30T12:29:22.447Z,40.50
2018-07-30T12:34:28.483Z,40.60
2018-07-30T12:39:34.548Z,40.60
2018-07-30T12:44:41.184Z,39.60
2018-07-30T12:49:49.493Z,39.30
2018-07-30T12:54:55.251Z,38.90
2018-07-30T12:59:59.504Z,38.40
2018-07-30T13:05:03.162Z,37.90
2018-07-30T13:10:06.857Z,37.30
2018-07-30T13:15:10.603Z,37.40
2018-07-30T13:20:14.175Z,37.90
2018-07-30T13:25:17.749Z,37.70
2018-07-30T13:30:22.228Z,37.50
2018-07-30T13:35:25.638Z,37.70
2018-07-30T13:40:29.619Z,37.40
2018-07-30T13:45:33.087Z,37.50
2018-07-30T13:50:36.590Z,38.00
2018-07-30T13:55:40.170Z,38.10
2018-07-30T14:00:43.614Z,38.70
2018-07-30T14:05:48.187Z,39.20
2018-07-30T14:10:51.633Z,39.80
2018-07-30T14:15:56.237Z,39.90
2018-07-30T14:21:00.829Z,40.00
2018-07-30T14:26:11.067Z,40.10
2018-07-30T14:31:24.541Z,40.00
2018-07-30T15:32:47.920Z,39.70
2018-07-30T15:43:39.336Z,39.40
2018-07-30T15:48:48.655Z,39.60
2018-07-30T15:54:10.282Z,39.40
2018-07-30T15:59:22.208Z,39.00
2018-07-30T16:15:46.642Z,38.30
2018-07-30T16:20:56.511Z,38.00
2018-07-30T16:26:05.091Z,37.60
2018-07-30T16:31:14.052Z,37.60
2018-07-30T16:36:19.664Z,37.80
2018-07-30T16:41:23.283Z,37.70
2018-07-30T16:46:26.907Z,38.10
2018-07-30T16:51:30.508Z,38.40
2018-07-30T16:56:34.001Z,38.70
2018-07-30T17:01:37.641Z,38.80
2018-07-30T17:06:42.121Z,38.70
2018-07-30T17:11:45.510Z,38.80
2018-07-30T17:16:49.061Z,39.30
2018-07-30T17:21:55.760Z,39.80
2018-07-30T17:27:06.246Z,40.10
2018-07-30T17:32:10.828Z,40.70
2018-07-30T17:37:14.393Z,41.10
2018-07-30T17:42:17.995Z,41.40
2018-07-30T17:47:21.479Z,41.10
2018-07-30T17:52:24.999Z,40.40
2018-07-30T17:57:28.449Z,39.30
2018-07-30T18:02:35.436Z,38.30
2018-07-30T18:07:39.064Z,37.40
2018-07-30T18:12:56.121Z,36.50
2018-07-30T18:18:07.671Z,35.80
2018-07-30T18:34:09.795Z,34.10
2018-07-30T18:39:35.601Z,33.40
2018-07-30T18:44:51.317Z,33.10
2018-07-30T21:17:27.486Z,26.00
2018-07-30T21:22:37.683Z,25.70
2018-07-30T21:27:47.051Z,25.70
2018-07-30T21:32:50.950Z,25.40
2018-07-30T21:37:54.691Z,25.30
2018-07-30T21:42:58.269Z,25.20
2018-07-30T21:48:02.004Z,25.20
2018-07-30T21:53:05.897Z,25.10
2018-07-30T21:58:09.555Z,25.10
2018-07-30T22:03:17.326Z,24.90
2018-07-30T22:08:23.019Z,24.90
2018-07-30T22:13:26.695Z,24.80
2018-07-30T22:18:30.315Z,24.80
2018-07-30T22:23:33.880Z,24.60
2018-07-30T22:33:45.009Z,24.60
2018-07-30T22:38:48.651Z,24.50
2018-07-30T22:43:52.287Z,24.30
2018-07-30T22:48:56.106Z,24.10
2018-07-30T22:54:00.704Z,24.00
2018-07-30T23:21:09.914Z,23.90
2018-07-30T23:37:20.915Z,23.90
2018-07-30T23:47:53.157Z,23.60
2018-07-30T23:53:00.685Z,23.50
2018-07-30T23:58:07.222Z,23.50
